sensor_id;sensor_type;location;lat;lon;timestamp;pressure;altitude;pressure_sealevel;temperature
15626;BMP180;7912;51.376;6.126;2024-01-15T00:02:04;100029.00;;;5.10
15626;BMP180;7912;51.376;6.126;2024-01-15T00:04:39;100018.00;;;5.20
15626;BMP180;7912;51.376;6.126;2024-01-15T00:07:23;100017.00;;;5.20
15626;BMP180;7912;51.376;6.126;2024-01-15T00:09:55;100004.00;;;5.20
15626;BMP180;7912;51.376;6.126;2024-01-15T00:12:27;100002.00;;;5.20
15626;BMP180;7912;51.376;6.126;2024-01-15T00:14:59;100010.00;;;5.30
15626;BMP180;7912;51.376;6.126;2024-01-15T00:17:28;100012.00;;;5.30
15626;BMP180;7912;51.376;6.126;2024-01-15T00:20:02;100005.00;;;5.30
15626;BMP180;7912;51.376;6.126;2024-01-15T00:22:45;99982.00;;;5.30
15626;BMP180;7912;51.376;6.126;2024-01-15T00:25:19;99990.00;;;5.30
15626;BMP180;7912;51.376;6.126;2024-01-15T00:27:55;99998.00;;;5.40
15626;BMP180;7912;51.376;6.126;2024-01-15T00:30:35;99984.00;;;5.40
15626;BMP180;7912;51.376;6.126;2024-01-15T00:33:15;99998.00;;;5.40
15626;BMP180;7912;51.376;6.126;2024-01-15T00:35:52;99993.00;;;5.40
15626;BMP180;7912;51.376;6.126;2024-01-15T00:38:24;99979.00;;;5.40
15626;BMP180;7912;51.376;6.126;2024-01-15T00:41:36;100000.00;;;5.30
15626;BMP180;7912;51.376;6.126;2024-01-15T00:45:04;99978.00;;;5.30
15626;BMP180;7912;51.376;6.126;2024-01-15T00:47:49;99982.00;;;5.30
15626;BMP180;7912;51.376;6.126;2024-01-15T00:50:27;99984.00;;;5.40
15626;BMP180;7912;51.376;6.126;2024-01-15T00:53:28;99974.00;;;5.40
15626;BMP180;7912;51.376;6.126;2024-01-15T00:56:15;99975.00;;;5.30
15626;BMP180;7912;51.376;6.126;2024-01-15T00:58:44;99974.00;;;5.40
15626;BMP180;7912;51.376;6.126;2024-01-15T01:01:41;99978.00;;;5.30
15626;BMP180;7912;51.376;6.126;2024-01-15T01:04:23;99974.00;;;5.40
15626;BMP180;7912;51.376;6.126;2024-01-15T01:07:28;99953.00;;;5.30
15626;BMP180;7912;51.376;6.126;2024-01-15T01:13:53;99962.00;;;5.30
15626;BMP180;7912;51.376;6.126;2024-01-15T01:16:27;99944.00;;;5.30
15626;BMP180;7912;51.376;6.126;2024-01-15T01:18:55;99953.00;;;5.40
15626;BMP180;7912;51.376;6.126;2024-01-15T01:21:26;99943.00;;;5.40
15626;BMP180;7912;51.376;6.126;2024-01-15T01:23:54;99948.00;;;5.40
15626;BMP180;7912;51.376;6.126;2024-01-15T01:26:26;99967.00;;;5.40
15626;BMP180;7912;51.376;6.126;2024-01-15T01:28:56;99961.00;;;5.40
15626;BMP180;7912;51.376;6.126;2024-01-15T01:31:24;99961.00;;;5.40
15626;BMP180;7912;51.376;6.126;2024-01-15T01:33:53;99941.00;;;5.40
15626;BMP180;7912;51.376;6.126;2024-01-15T01:36:21;99963.00;;;5.40
15626;BMP180;7912;51.376;6.126;2024-01-15T01:38:49;99946.00;;;5.50
15626;BMP180;7912;51.376;6.126;2024-01-15T01:41:17;99955.00;;;5.50
15626;BMP180;7912;51.376;6.126;2024-01-15T01:43:45;99960.00;;;5.50
15626;BMP180;7912;51.376;6.126;2024-01-15T01:46:12;99951.00;;;5.50
15626;BMP180;7912;51.376;6.126;2024-01-15T01:48:42;99951.00;;;5.50
15626;BMP180;7912;51.376;6.126;2024-01-15T01:51:13;99954.00;;;5.50
15626;BMP180;7912;51.376;6.126;2024-01-15T01:53:46;99956.00;;;5.50
15626;BMP180;7912;51.376;6.126;2024-01-15T01:56:16;99961.00;;;5.50
15626;BMP180;7912;51.376;6.126;2024-01-15T01:58:45;99968.00;;;5.50
15626;BMP180;7912;51.376;6.126;2024-01-15T02:01:16;99972.00;;;5.50
15626;BMP180;7912;51.376;6.126;2024-01-15T02:03:45;99961.00;;;5.50
15626;BMP180;7912;51.376;6.126;2024-01-15T02:06:13;99965.00;;;5.50
15626;BMP180;7912;51.376;6.126;2024-01-15T02:08:44;99975.00;;;5.50
15626;BMP180;7912;51.376;6.126;2024-01-15T02:11:12;99982.00;;;5.50
15626;BMP180;7912;51.376;6.126;2024-01-15T02:13:41;99969.00;;;5.50
15626;BMP180;7912;51.376;6.126;2024-01-15T02:16:09;99973.00;;;5.50
15626;BMP180;7912;51.376;6.126;2024-01-15T02:18:45;99959.00;;;5.50
15626;BMP180;7912;51.376;6.126;2024-01-15T02:21:13;99967.00;;;5.50
15626;BMP180;7912;51.376;6.126;2024-01-15T02:23:41;99951.00;;;5.60
15626;BMP180;7912;51.376;6.126;2024-01-15T02:26:09;99963.00;;;5.60
15626;BMP180;7912;51.376;6.126;2024-01-15T02:28:38;99964.00;;;5.50
15626;BMP180;7912;51.376;6.126;2024-01-15T02:31:07;99951.00;;;5.50
15626;BMP180;7912;51.376;6.126;2024-01-15T02:33:35;99954.00;;;5.50
15626;BMP180;7912;51.376;6.126;2024-01-15T02:36:03;99947.00;;;5.50
15626;BMP180;7912;51.376;6.126;2024-01-15T02:38:35;99959.00;;;5.50
15626;BMP180;7912;51.376;6.126;2024-01-15T02:41:04;99948.00;;;5.40
15626;BMP180;7912;51.376;6.126;2024-01-15T02:43:32;99957.00;;;5.40
15626;BMP180;7912;51.376;6.126;2024-01-15T02:46:00;99958.00;;;5.40
15626;BMP180;7912;51.376;6.126;2024-01-15T02:48:27;99960.00;;;5.40
15626;BMP180;7912;51.376;6.126;2024-01-15T02:50:55;99946.00;;;5.40
15626;BMP180;7912;51.376;6.126;2024-01-15T02:53:23;99946.00;;;5.40
15626;BMP180;7912;51.376;6.126;2024-01-15T02:55:54;99945.00;;;5.40
15626;BMP180;7912;51.376;6.126;2024-01-15T02:58:25;99958.00;;;5.40
15626;BMP180;7912;51.376;6.126;2024-01-15T03:00:52;99954.00;;;5.40
15626;BMP180;7912;51.376;6.126;2024-01-15T03:03:20;99953.00;;;5.30
15626;BMP180;7912;51.376;6.126;2024-01-15T03:05:48;99959.00;;;5.30
15626;BMP180;7912;51.376;6.126;2024-01-15T03:08:16;99956.00;;;5.30
15626;BMP180;7912;51.376;6.126;2024-01-15T03:10:44;99951.00;;;5.40
15626;BMP180;7912;51.376;6.126;2024-01-15T03:13:12;99945.00;;;5.30
15626;BMP180;7912;51.376;6.126;2024-01-15T03:15:39;99943.00;;;5.30
15626;BMP180;7912;51.376;6.126;2024-01-15T03:18:07;99948.00;;;5.30
15626;BMP180;7912;51.376;6.126;2024-01-15T03:20:37;99955.00;;;5.30
15626;BMP180;7912;51.376;6.126;2024-01-15T03:23:07;99946.00;;;5.30
15626;BMP180;7912;51.376;6.126;2024-01-15T03:25:35;99938.00;;;5.20
15626;BMP180;7912;51.376;6.126;2024-01-15T03:28:02;99960.00;;;5.20
15626;BMP180;7912;51.376;6.126;2024-01-15T03:30:30;99953.00;;;5.20
15626;BMP180;7912;51.376;6.126;2024-01-15T03:32:58;99958.00;;;5.20
15626;BMP180;7912;51.376;6.126;2024-01-15T03:35:25;99944.00;;;5.20
15626;BMP180;7912;51.376;6.126;2024-01-15T03:37:56;99949.00;;;5.10
15626;BMP180;7912;51.376;6.126;2024-01-15T03:40:23;99958.00;;;5.10
15626;BMP180;7912;51.376;6.126;2024-01-15T03:42:51;99948.00;;;5.10
15626;BMP180;7912;51.376;6.126;2024-01-15T03:45:19;99948.00;;;5.10
15626;BMP180;7912;51.376;6.126;2024-01-15T03:47:47;99949.00;;;5.00
15626;BMP180;7912;51.376;6.126;2024-01-15T03:50:15;99949.00;;;5.00
15626;BMP180;7912;51.376;6.126;2024-01-15T03:52:46;99946.00;;;5.00
15626;BMP180;7912;51.376;6.126;2024-01-15T03:55:14;99927.00;;;5.00
15626;BMP180;7912;51.376;6.126;2024-01-15T03:57:42;99921.00;;;5.00
15626;BMP180;7912;51.376;6.126;2024-01-15T04:04:42;99934.00;;;4.90
15626;BMP180;7912;51.376;6.126;2024-01-15T04:07:12;99931.00;;;4.90
15626;BMP180;7912;51.376;6.126;2024-01-15T04:09:39;99911.00;;;4.90
15626;BMP180;7912;51.376;6.126;2024-01-15T04:12:08;99909.00;;;4.90
15626;BMP180;7912;51.376;6.126;2024-01-15T04:14:35;99916.00;;;4.90
15626;BMP180;7912;51.376;6.126;2024-01-15T04:17:03;99912.00;;;4.90
15626;BMP180;7912;51.376;6.126;2024-01-15T04:19:33;99914.00;;;4.90
15626;BMP180;7912;51.376;6.126;2024-01-15T04:22:01;99914.00;;;4.90
15626;BMP180;7912;51.376;6.126;2024-01-15T04:24:31;99905.00;;;4.90
15626;BMP180;7912;51.376;6.126;2024-01-15T04:26:59;99912.00;;;4.90
15626;BMP180;7912;51.376;6.126;2024-01-15T04:29:27;99917.00;;;4.90
15626;BMP180;7912;51.376;6.126;2024-01-15T04:31:58;99896.00;;;4.90
15626;BMP180;7912;51.376;6.126;2024-01-15T04:34:25;99880.00;;;4.90
15626;BMP180;7912;51.376;6.126;2024-01-15T04:36:53;99906.00;;;4.90
15626;BMP180;7912;51.376;6.126;2024-01-15T04:39:27;99912.00;;;4.90
15626;BMP180;7912;51.376;6.126;2024-01-15T04:41:55;99900.00;;;4.90
15626;BMP180;7912;51.376;6.126;2024-01-15T04:44:23;99892.00;;;4.90
15626;BMP180;7912;51.376;6.126;2024-01-15T04:46:51;99888.00;;;5.00
15626;BMP180;7912;51.376;6.126;2024-01-15T04:49:18;99889.00;;;5.00
15626;BMP180;7912;51.376;6.126;2024-01-15T04:51:46;99871.00;;;5.00
15626;BMP180;7912;51.376;6.126;2024-01-15T04:54:14;99881.00;;;5.10
15626;BMP180;7912;51.376;6.126;2024-01-15T04:56:45;99874.00;;;5.10
15626;BMP180;7912;51.376;6.126;2024-01-15T04:59:14;99871.00;;;5.10
15626;BMP180;7912;51.376;6.126;2024-01-15T05:01:42;99861.00;;;5.10
15626;BMP180;7912;51.376;6.126;2024-01-15T05:04:09;99878.00;;;5.10
15626;BMP180;7912;51.376;6.126;2024-01-15T05:06:37;99879.00;;;5.10
15626;BMP180;7912;51.376;6.126;2024-01-15T05:09:05;99865.00;;;5.20
15626;BMP180;7912;51.376;6.126;2024-01-15T05:11:33;99878.00;;;5.10
15626;BMP180;7912;51.376;6.126;2024-01-15T05:14:02;99884.00;;;5.20
15626;BMP180;7912;51.376;6.126;2024-01-15T05:16:29;99866.00;;;5.20
15626;BMP180;7912;51.376;6.126;2024-01-15T05:18:56;99871.00;;;5.20
15626;BMP180;7912;51.376;6.126;2024-01-15T05:21:24;99869.00;;;5.20
15626;BMP180;7912;51.376;6.126;2024-01-15T05:23:52;99879.00;;;5.20
15626;BMP180;7912;51.376;6.126;2024-01-15T05:26:34;99878.00;;;5.30
15626;BMP180;7912;51.376;6.126;2024-01-15T05:29:09;99863.00;;;5.30
15626;BMP180;7912;51.376;6.126;2024-01-15T05:31:39;99867.00;;;5.30
15626;BMP180;7912;51.376;6.126;2024-01-15T05:34:07;99857.00;;;5.30
15626;BMP180;7912;51.376;6.126;2024-01-15T05:36:36;99868.00;;;5.30
15626;BMP180;7912;51.376;6.126;2024-01-15T05:39:03;99862.00;;;5.30
15626;BMP180;7912;51.376;6.126;2024-01-15T05:41:33;99849.00;;;5.30
15626;BMP180;7912;51.376;6.126;2024-01-15T05:44:00;99867.00;;;5.40
15626;BMP180;7912;51.376;6.126;2024-01-15T05:46:31;99846.00;;;5.40
15626;BMP180;7912;51.376;6.126;2024-01-15T05:48:58;99854.00;;;5.40
15626;BMP180;7912;51.376;6.126;2024-01-15T05:51:27;99859.00;;;5.40
15626;BMP180;7912;51.376;6.126;2024-01-15T05:53:57;99872.00;;;5.40
15626;BMP180;7912;51.376;6.126;2024-01-15T05:56:24;99859.00;;;5.40
15626;BMP180;7912;51.376;6.126;2024-01-15T05:58:56;99863.00;;;5.40
15626;BMP180;7912;51.376;6.126;2024-01-15T06:01:27;99863.00;;;5.40
15626;BMP180;7912;51.376;6.126;2024-01-15T06:03:58;99851.00;;;5.40
15626;BMP180;7912;51.376;6.126;2024-01-15T06:06:26;99851.00;;;5.40
15626;BMP180;7912;51.376;6.126;2024-01-15T06:08:54;99843.00;;;5.40
15626;BMP180;7912;51.376;6.126;2024-01-15T06:11:22;99844.00;;;5.40
15626;BMP180;7912;51.376;6.126;2024-01-15T06:13:52;99852.00;;;5.40
15626;BMP180;7912;51.376;6.126;2024-01-15T06:16:21;99846.00;;;5.40
15626;BMP180;7912;51.376;6.126;2024-01-15T06:18:50;99844.00;;;5.50
15626;BMP180;7912;51.376;6.126;2024-01-15T06:21:17;99851.00;;;5.50
15626;BMP180;7912;51.376;6.126;2024-01-15T06:23:48;99850.00;;;5.50
15626;BMP180;7912;51.376;6.126;2024-01-15T06:30:26;99835.00;;;5.40
15626;BMP180;7912;51.376;6.126;2024-01-15T06:32:54;99820.00;;;5.40
15626;BMP180;7912;51.376;6.126;2024-01-15T06:35:22;99841.00;;;5.40
15626;BMP180;7912;51.376;6.126;2024-01-15T06:37:50;99821.00;;;5.40
15626;BMP180;7912;51.376;6.126;2024-01-15T06:40:18;99838.00;;;5.50
15626;BMP180;7912;51.376;6.126;2024-01-15T06:42:48;99829.00;;;5.50
15626;BMP180;7912;51.376;6.126;2024-01-15T06:45:16;99832.00;;;5.50
15626;BMP180;7912;51.376;6.126;2024-01-15T06:47:45;99835.00;;;5.50
15626;BMP180;7912;51.376;6.126;2024-01-15T06:50:30;99832.00;;;5.50
15626;BMP180;7912;51.376;6.126;2024-01-15T06:57:25;99837.00;;;5.50
15626;BMP180;7912;51.376;6.126;2024-01-15T06:59:55;99836.00;;;5.50
15626;BMP180;7912;51.376;6.126;2024-01-15T07:02:23;99834.00;;;5.40
15626;BMP180;7912;51.376;6.126;2024-01-15T07:04:51;99837.00;;;5.50
15626;BMP180;7912;51.376;6.126;2024-01-15T07:07:19;99829.00;;;5.50
15626;BMP180;7912;51.376;6.126;2024-01-15T07:09:46;99831.00;;;5.40
15626;BMP180;7912;51.376;6.126;2024-01-15T07:12:14;99835.00;;;5.40
15626;BMP180;7912;51.376;6.126;2024-01-15T07:14:43;99831.00;;;5.40
15626;BMP180;7912;51.376;6.126;2024-01-15T07:17:11;99824.00;;;5.40
15626;BMP180;7912;51.376;6.126;2024-01-15T07:19:39;99830.00;;;5.40
15626;BMP180;7912;51.376;6.126;2024-01-15T07:22:07;99802.00;;;5.40
15626;BMP180;7912;51.376;6.126;2024-01-15T07:24:35;99822.00;;;5.40
15626;BMP180;7912;51.376;6.126;2024-01-15T07:27:04;99818.00;;;5.40
15626;BMP180;7912;51.376;6.126;2024-01-15T07:29:34;99822.00;;;5.30
15626;BMP180;7912;51.376;6.126;2024-01-15T07:32:05;99806.00;;;5.30
15626;BMP180;7912;51.376;6.126;2024-01-15T07:34:36;99809.00;;;5.30
15626;BMP180;7912;51.376;6.126;2024-01-15T07:37:06;99833.00;;;5.30
15626;BMP180;7912;51.376;6.126;2024-01-15T07:39:34;99823.00;;;5.30
15626;BMP180;7912;51.376;6.126;2024-01-15T07:42:02;99826.00;;;5.30
15626;BMP180;7912;51.376;6.126;2024-01-15T07:44:29;99809.00;;;5.30
15626;BMP180;7912;51.376;6.126;2024-01-15T07:47:00;99809.00;;;5.30
15626;BMP180;7912;51.376;6.126;2024-01-15T07:49:27;99810.00;;;5.30
15626;BMP180;7912;51.376;6.126;2024-01-15T07:51:55;99825.00;;;5.30
15626;BMP180;7912;51.376;6.126;2024-01-15T07:54:23;99823.00;;;5.20
15626;BMP180;7912;51.376;6.126;2024-01-15T07:57:00;99833.00;;;5.20
15626;BMP180;7912;51.376;6.126;2024-01-15T07:59:28;99838.00;;;5.20
15626;BMP180;7912;51.376;6.126;2024-01-15T08:01:56;99847.00;;;5.10
15626;BMP180;7912;51.376;6.126;2024-01-15T08:04:24;99850.00;;;5.10
15626;BMP180;7912;51.376;6.126;2024-01-15T08:06:55;99852.00;;;5.10
15626;BMP180;7912;51.376;6.126;2024-01-15T08:09:28;99837.00;;;5.10
15626;BMP180;7912;51.376;6.126;2024-01-15T08:11:57;99843.00;;;5.10
15626;BMP180;7912;51.376;6.126;2024-01-15T08:14:29;99855.00;;;5.10
15626;BMP180;7912;51.376;6.126;2024-01-15T08:17:01;99852.00;;;5.10
15626;BMP180;7912;51.376;6.126;2024-01-15T08:19:30;99838.00;;;5.10
15626;BMP180;7912;51.376;6.126;2024-01-15T08:21:58;99839.00;;;5.10
15626;BMP180;7912;51.376;6.126;2024-01-15T08:24:27;99851.00;;;5.10
15626;BMP180;7912;51.376;6.126;2024-01-15T08:26:56;99855.00;;;5.10
15626;BMP180;7912;51.376;6.126;2024-01-15T08:29:24;99859.00;;;5.10
15626;BMP180;7912;51.376;6.126;2024-01-15T08:31:56;99860.00;;;5.10
15626;BMP180;7912;51.376;6.126;2024-01-15T08:34:24;99855.00;;;5.10
15626;BMP180;7912;51.376;6.126;2024-01-15T08:36:56;99855.00;;;5.10
15626;BMP180;7912;51.376;6.126;2024-01-15T08:39:25;99852.00;;;5.10
15626;BMP180;7912;51.376;6.126;2024-01-15T08:41:56;99864.00;;;5.10
15626;BMP180;7912;51.376;6.126;2024-01-15T08:44:25;99859.00;;;5.00
15626;BMP180;7912;51.376;6.126;2024-01-15T08:46:53;99850.00;;;5.00
15626;BMP180;7912;51.376;6.126;2024-01-15T08:49:21;99858.00;;;4.90
15626;BMP180;7912;51.376;6.126;2024-01-15T08:51:50;99850.00;;;5.00
15626;BMP180;7912;51.376;6.126;2024-01-15T08:54:18;99858.00;;;5.00
15626;BMP180;7912;51.376;6.126;2024-01-15T08:56:48;99875.00;;;5.00
15626;BMP180;7912;51.376;6.126;2024-01-15T08:59:19;99889.00;;;5.00
15626;BMP180;7912;51.376;6.126;2024-01-15T09:01:53;99904.00;;;5.00
15626;BMP180;7912;51.376;6.126;2024-01-15T09:04:27;99873.00;;;5.00
15626;BMP180;7912;51.376;6.126;2024-01-15T09:06:55;99876.00;;;5.10
15626;BMP180;7912;51.376;6.126;2024-01-15T09:09:30;99884.00;;;5.10
15626;BMP180;7912;51.376;6.126;2024-01-15T09:11:57;99884.00;;;5.10
15626;BMP180;7912;51.376;6.126;2024-01-15T09:14:28;99881.00;;;5.10
15626;BMP180;7912;51.376;6.126;2024-01-15T09:17:04;99885.00;;;5.20
15626;BMP180;7912;51.376;6.126;2024-01-15T09:19:38;99880.00;;;5.20
15626;BMP180;7912;51.376;6.126;2024-01-15T09:22:13;99888.00;;;5.20
15626;BMP180;7912;51.376;6.126;2024-01-15T09:24:45;99883.00;;;5.10
15626;BMP180;7912;51.376;6.126;2024-01-15T09:27:14;99879.00;;;5.10
15626;BMP180;7912;51.376;6.126;2024-01-15T09:29:42;99895.00;;;5.20
15626;BMP180;7912;51.376;6.126;2024-01-15T09:32:12;99888.00;;;5.10
15626;BMP180;7912;51.376;6.126;2024-01-15T09:34:40;99897.00;;;5.20
15626;BMP180;7912;51.376;6.126;2024-01-15T09:37:09;99897.00;;;5.30
15626;BMP180;7912;51.376;6.126;2024-01-15T09:39:44;99891.00;;;5.30
15626;BMP180;7912;51.376;6.126;2024-01-15T09:42:12;99887.00;;;5.40
15626;BMP180;7912;51.376;6.126;2024-01-15T09:44:43;99889.00;;;5.40
15626;BMP180;7912;51.376;6.126;2024-01-15T09:47:13;99886.00;;;5.40
15626;BMP180;7912;51.376;6.126;2024-01-15T09:49:46;99880.00;;;5.40
15626;BMP180;7912;51.376;6.126;2024-01-15T09:52:18;99878.00;;;5.40
15626;BMP180;7912;51.376;6.126;2024-01-15T09:54:47;99894.00;;;5.30
15626;BMP180;7912;51.376;6.126;2024-01-15T09:57:15;99903.00;;;5.30
15626;BMP180;7912;51.376;6.126;2024-01-15T09:59:46;99899.00;;;5.30
15626;BMP180;7912;51.376;6.126;2024-01-15T10:02:15;99894.00;;;5.30
15626;BMP180;7912;51.376;6.126;2024-01-15T10:04:47;99880.00;;;5.40
15626;BMP180;7912;51.376;6.126;2024-01-15T10:07:16;99898.00;;;5.40
15626;BMP180;7912;51.376;6.126;2024-01-15T10:09:46;99902.00;;;5.50
15626;BMP180;7912;51.376;6.126;2024-01-15T10:12:15;99892.00;;;5.50
15626;BMP180;7912;51.376;6.126;2024-01-15T10:14:43;99893.00;;;5.60
15626;BMP180;7912;51.376;6.126;2024-01-15T10:17:14;99879.00;;;5.60
15626;BMP180;7912;51.376;6.126;2024-01-15T10:19:48;99879.00;;;5.70
15626;BMP180;7912;51.376;6.126;2024-01-15T10:22:20;99893.00;;;5.80
15626;BMP180;7912;51.376;6.126;2024-01-15T10:24:48;99893.00;;;5.90
15626;BMP180;7912;51.376;6.126;2024-01-15T10:27:16;99871.00;;;6.10
15626;BMP180;7912;51.376;6.126;2024-01-15T10:29:44;99875.00;;;6.10
15626;BMP180;7912;51.376;6.126;2024-01-15T10:32:12;99878.00;;;6.10
15626;BMP180;7912;51.376;6.126;2024-01-15T10:34:41;99876.00;;;6.10
15626;BMP180;7912;51.376;6.126;2024-01-15T10:37:11;99881.00;;;6.10
15626;BMP180;7912;51.376;6.126;2024-01-15T10:39:38;99871.00;;;6.10
15626;BMP180;7912;51.376;6.126;2024-01-15T10:42:06;99879.00;;;6.10
15626;BMP180;7912;51.376;6.126;2024-01-15T10:44:35;99876.00;;;6.10
15626;BMP180;7912;51.376;6.126;2024-01-15T10:47:06;99877.00;;;6.20
15626;BMP180;7912;51.376;6.126;2024-01-15T10:49:34;99873.00;;;6.20
15626;BMP180;7912;51.376;6.126;2024-01-15T10:52:02;99871.00;;;6.20
15626;BMP180;7912;51.376;6.126;2024-01-15T10:54:36;99876.00;;;6.30
15626;BMP180;7912;51.376;6.126;2024-01-15T10:57:07;99874.00;;;6.30
15626;BMP180;7912;51.376;6.126;2024-01-15T10:59:36;99884.00;;;6.30
15626;BMP180;7912;51.376;6.126;2024-01-15T11:02:04;99877.00;;;6.30
15626;BMP180;7912;51.376;6.126;2024-01-15T11:04:33;99894.00;;;6.30
15626;BMP180;7912;51.376;6.126;2024-01-15T11:07:02;99872.00;;;6.30
15626;BMP180;7912;51.376;6.126;2024-01-15T11:09:31;99877.00;;;6.30
15626;BMP180;7912;51.376;6.126;2024-01-15T11:12:16;99874.00;;;6.30
15626;BMP180;7912;51.376;6.126;2024-01-15T11:14:49;99875.00;;;6.30
15626;BMP180;7912;51.376;6.126;2024-01-15T11:17:18;99872.00;;;6.40
15626;BMP180;7912;51.376;6.126;2024-01-15T11:19:50;99875.00;;;6.40
15626;BMP180;7912;51.376;6.126;2024-01-15T11:25:13;99866.00;;;6.40
15626;BMP180;7912;51.376;6.126;2024-01-15T11:27:49;99879.00;;;6.40
15626;BMP180;7912;51.376;6.126;2024-01-15T11:30:25;99887.00;;;6.50
15626;BMP180;7912;51.376;6.126;2024-01-15T11:32:53;99888.00;;;6.50
15626;BMP180;7912;51.376;6.126;2024-01-15T11:35:21;99899.00;;;6.50
15626;BMP180;7912;51.376;6.126;2024-01-15T11:40:38;99893.00;;;6.40
15626;BMP180;7912;51.376;6.126;2024-01-15T11:43:10;99898.00;;;6.40
15626;BMP180;7912;51.376;6.126;2024-01-15T11:45:40;99896.00;;;6.40
15626;BMP180;7912;51.376;6.126;2024-01-15T11:48:15;99894.00;;;6.40
15626;BMP180;7912;51.376;6.126;2024-01-15T11:50:50;99873.00;;;6.40
15626;BMP180;7912;51.376;6.126;2024-01-15T11:53:33;99887.00;;;6.50
15626;BMP180;7912;51.376;6.126;2024-01-15T11:56:15;99878.00;;;6.50
15626;BMP180;7912;51.376;6.126;2024-01-15T11:58:49;99873.00;;;6.60
15626;BMP180;7912;51.376;6.126;2024-01-15T12:01:21;99877.00;;;6.60
15626;BMP180;7912;51.376;6.126;2024-01-15T12:03:49;99877.00;;;6.70
15626;BMP180;7912;51.376;6.126;2024-01-15T12:06:17;99883.00;;;6.80
15626;BMP180;7912;51.376;6.126;2024-01-15T12:08:46;99872.00;;;6.80
15626;BMP180;7912;51.376;6.126;2024-01-15T12:11:18;99867.00;;;6.90
15626;BMP180;7912;51.376;6.126;2024-01-15T12:13:48;99874.00;;;7.00
15626;BMP180;7912;51.376;6.126;2024-01-15T12:16:21;99893.00;;;7.10
15626;BMP180;7912;51.376;6.126;2024-01-15T12:18:52;99882.00;;;7.20
15626;BMP180;7912;51.376;6.126;2024-01-15T12:21:20;99877.00;;;7.10
15626;BMP180;7912;51.376;6.126;2024-01-15T12:23:51;99882.00;;;7.20
15626;BMP180;7912;51.376;6.126;2024-01-15T12:26:21;99887.00;;;7.10
15626;BMP180;7912;51.376;6.126;2024-01-15T12:28:50;99879.00;;;7.00
15626;BMP180;7912;51.376;6.126;2024-01-15T12:31:23;99896.00;;;6.90
15626;BMP180;7912;51.376;6.126;2024-01-15T12:33:51;99898.00;;;7.00
15626;BMP180;7912;51.376;6.126;2024-01-15T12:36:23;99887.00;;;7.00
15626;BMP180;7912;51.376;6.126;2024-01-15T12:38:50;99896.00;;;7.10
15626;BMP180;7912;51.376;6.126;2024-01-15T12:41:19;99903.00;;;7.20
15626;BMP180;7912;51.376;6.126;2024-01-15T12:43:47;99895.00;;;7.40
15626;BMP180;7912;51.376;6.126;2024-01-15T12:46:15;99894.00;;;7.50
15626;BMP180;7912;51.376;6.126;2024-01-15T12:48:44;99908.00;;;7.50
15626;BMP180;7912;51.376;6.126;2024-01-15T12:51:13;99908.00;;;7.40
15626;BMP180;7912;51.376;6.126;2024-01-15T12:53:45;99902.00;;;7.30
15626;BMP180;7912;51.376;6.126;2024-01-15T12:56:13;99915.00;;;7.10
15626;BMP180;7912;51.376;6.126;2024-01-15T12:58:41;99914.00;;;6.90
15626;BMP180;7912;51.376;6.126;2024-01-15T13:01:09;99902.00;;;6.80
15626;BMP180;7912;51.376;6.126;2024-01-15T13:03:36;99912.00;;;6.70
15626;BMP180;7912;51.376;6.126;2024-01-15T13:06:04;99927.00;;;6.60
15626;BMP180;7912;51.376;6.126;2024-01-15T13:08:33;99931.00;;;6.50
15626;BMP180;7912;51.376;6.126;2024-01-15T13:11:02;99922.00;;;6.50
15626;BMP180;7912;51.376;6.126;2024-01-15T13:13:31;99929.00;;;6.50
15626;BMP180;7912;51.376;6.126;2024-01-15T13:16:01;99928.00;;;6.40
15626;BMP180;7912;51.376;6.126;2024-01-15T13:18:29;99933.00;;;6.40
15626;BMP180;7912;51.376;6.126;2024-01-15T13:20:58;99915.00;;;6.40
15626;BMP180;7912;51.376;6.126;2024-01-15T13:23:28;99915.00;;;6.30
15626;BMP180;7912;51.376;6.126;2024-01-15T13:25:56;99913.00;;;6.30
15626;BMP180;7912;51.376;6.126;2024-01-15T13:28:29;99930.00;;;6.20
15626;BMP180;7912;51.376;6.126;2024-01-15T13:30:57;99937.00;;;6.20
15626;BMP180;7912;51.376;6.126;2024-01-15T13:33:26;99944.00;;;6.20
15626;BMP180;7912;51.376;6.126;2024-01-15T13:35:54;99930.00;;;6.20
15626;BMP180;7912;51.376;6.126;2024-01-15T13:38:22;99948.00;;;6.30
15626;BMP180;7912;51.376;6.126;2024-01-15T13:40:51;99932.00;;;6.30
15626;BMP180;7912;51.376;6.126;2024-01-15T13:43:19;99928.00;;;6.30
15626;BMP180;7912;51.376;6.126;2024-01-15T13:45:50;99955.00;;;6.30
15626;BMP180;7912;51.376;6.126;2024-01-15T13:48:21;99942.00;;;6.30
15626;BMP180;7912;51.376;6.126;2024-01-15T13:50:52;99961.00;;;6.30
15626;BMP180;7912;51.376;6.126;2024-01-15T13:53:20;99956.00;;;6.30
15626;BMP180;7912;51.376;6.126;2024-01-15T13:55:49;99969.00;;;6.30
15626;BMP180;7912;51.376;6.126;2024-01-15T13:58:18;99968.00;;;6.20
15626;BMP180;7912;51.376;6.126;2024-01-15T14:00:51;99948.00;;;6.30
15626;BMP180;7912;51.376;6.126;2024-01-15T14:03:19;99970.00;;;6.20
15626;BMP180;7912;51.376;6.126;2024-01-15T14:05:48;99984.00;;;6.20
15626;BMP180;7912;51.376;6.126;2024-01-15T14:08:16;99967.00;;;6.20
15626;BMP180;7912;51.376;6.126;2024-01-15T14:10:47;99976.00;;;6.10
15626;BMP180;7912;51.376;6.126;2024-01-15T14:13:15;99978.00;;;6.10
15626;BMP180;7912;51.376;6.126;2024-01-15T14:15:45;99972.00;;;6.10
15626;BMP180;7912;51.376;6.126;2024-01-15T14:18:18;99993.00;;;6.20
15626;BMP180;7912;51.376;6.126;2024-01-15T14:20:52;99985.00;;;6.10
15626;BMP180;7912;51.376;6.126;2024-01-15T14:23:24;99985.00;;;6.20
15626;BMP180;7912;51.376;6.126;2024-01-15T14:25:56;99989.00;;;6.10
15626;BMP180;7912;51.376;6.126;2024-01-15T14:28:24;99995.00;;;6.10
15626;BMP180;7912;51.376;6.126;2024-01-15T14:30:55;99994.00;;;6.10
15626;BMP180;7912;51.376;6.126;2024-01-15T14:33:31;99988.00;;;6.10
15626;BMP180;7912;51.376;6.126;2024-01-15T14:36:06;100027.00;;;6.10
15626;BMP180;7912;51.376;6.126;2024-01-15T14:38:34;100028.00;;;6.10
15626;BMP180;7912;51.376;6.126;2024-01-15T14:41:02;100045.00;;;6.10
15626;BMP180;7912;51.376;6.126;2024-01-15T14:43:29;100033.00;;;6.20
15626;BMP180;7912;51.376;6.126;2024-01-15T14:45:57;100046.00;;;6.10
15626;BMP180;7912;51.376;6.126;2024-01-15T14:48:26;100048.00;;;6.20
15626;BMP180;7912;51.376;6.126;2024-01-15T14:50:55;100036.00;;;6.20
15626;BMP180;7912;51.376;6.126;2024-01-15T14:53:23;100063.00;;;6.10
15626;BMP180;7912;51.376;6.126;2024-01-15T14:55:52;100068.00;;;6.20
15626;BMP180;7912;51.376;6.126;2024-01-15T14:58:21;100059.00;;;6.20
15626;BMP180;7912;51.376;6.126;2024-01-15T15:00:49;100070.00;;;6.20
15626;BMP180;7912;51.376;6.126;2024-01-15T15:03:17;100059.00;;;6.10
15626;BMP180;7912;51.376;6.126;2024-01-15T15:05:45;100067.00;;;6.10
15626;BMP180;7912;51.376;6.126;2024-01-15T15:08:13;100081.00;;;6.00
15626;BMP180;7912;51.376;6.126;2024-01-15T15:10:42;100080.00;;;6.00
15626;BMP180;7912;51.376;6.126;2024-01-15T15:13:10;100076.00;;;6.00
15626;BMP180;7912;51.376;6.126;2024-01-15T15:15:38;100069.00;;;5.90